Time;durP1;ratioP1;P1;durP2;ratioP2;P2;SDS_P1;SDS_P2;PMS_P1;PMS_P2;Temp;Humidity;BMP_temperature;BMP_pressure;BME280_temperature;BME280_humidity;BME280_pressure;Samples;Min_cycle;Max_cycle;Signal;HPM_P1;HPM_P2
2022/02/06 00:01:43;;;;;;;;;4.25;3.00;;;;;21.79;33.37;101893.44;5063489;28;50924;-51
2022/02/06 00:04:08;;;;;;;;;3.00;3.00;;;;;21.83;33.50;101876.25;5069921;27;51121;-48
2022/02/06 00:06:35;;;;;;;;;1.75;1.75;;;;;21.85;33.37;101876.91;5065973;28;50961;-45
2022/02/06 00:09:00;;;;;;;;;3.75;3.00;;;;;21.85;33.12;101874.13;5055876;28;53547;-45
2022/02/06 00:11:25;;;;;;;;;3.00;3.00;;;;;21.82;33.45;101874.56;5072638;28;51114;-50
2022/02/06 00:13:51;;;;;;;;;1.50;1.25;;;;;21.81;33.23;101864.59;5065122;27;50992;-50
2022/02/06 00:16:16;;;;;;;;;2.25;2.00;;;;;21.79;33.51;101852.91;5061772;28;51158;-47
2022/02/06 00:18:43;;;;;;;;;5.25;4.00;;;;;21.75;33.61;101843.34;5068913;28;50973;-46
2022/02/06 00:21:13;;;;;;;;;3.00;2.75;;;;;21.72;33.28;101840.16;5066325;28;51421;-48
2022/02/06 00:23:39;;;;;;;;;3.00;3.00;;;;;21.67;33.62;101840.75;5068715;28;50881;-46
2022/02/06 00:26:12;;;;;;;;;3.00;2.00;;;;;21.65;33.22;101837.34;5068058;27;51961;-45
2022/02/06 00:28:46;;;;;;;;;5.25;1.00;;;;;21.65;33.22;101837.34;5068798;27;51689;-46
2022/02/06 00:31:17;;;;;;;;;2.50;2.50;;;;;21.69;33.12;101837.81;5072592;28;50851;-52
2022/02/06 00:39:01;;;;;;;;;2.25;2.25;;;;;21.81;33.17;101849.94;5061539;28;51366;-46
2022/02/06 00:41:29;;;;;;;;;1.75;1.75;;;;;21.80;33.45;101834.47;5068654;27;51349;-46
2022/02/06 00:43:55;;;;;;;;;2.00;2.00;;;;;21.78;33.10;101820.00;5067088;28;51143;-46
2022/02/06 00:46:22;;;;;;;;;1.50;1.50;;;;;21.75;33.13;101813.00;5065986;28;51226;-46
2022/02/06 00:48:57;;;;;;;;;2.00;2.00;;;;;21.71;33.11;101800.69;5066732;28;50980;-47
2022/02/06 00:51:32;;;;;;;;;1.25;1.25;;;;;21.67;33.53;101799.38;5065649;28;51331;-44
2022/02/06 00:53:57;;;;;;;;;3.00;3.00;;;;;21.65;33.17;101804.28;5066875;27;51119;-46
2022/02/06 00:56:23;;;;;;;;;2.00;2.00;;;;;21.61;33.67;101792.81;5064580;28;51073;-45
2022/02/06 00:58:48;;;;;;;;;1.75;1.75;;;;;21.59;33.20;101796.84;5065201;28;51772;-47
2022/02/06 01:01:13;;;;;;;;;3.25;3.00;;;;;21.59;33.54;101810.63;5065749;28;50950;-47
2022/02/06 01:03:39;;;;;;;;;2.00;2.00;;;;;21.62;33.56;101807.44;5068093;28;51010;-45
2022/02/06 01:06:05;;;;;;;;;3.00;2.25;;;;;21.67;33.74;101793.88;5066139;28;51285;-49
2022/02/06 01:08:30;;;;;;;;;2.50;2.50;;;;;21.72;33.60;101793.28;5065328;28;50985;-47
2022/02/06 01:10:56;;;;;;;;;4.25;4.25;;;;;21.75;33.20;101809.38;5067353;28;50872;-49
2022/02/06 01:13:28;;;;;;;;;2.75;2.75;;;;;21.74;33.33;101805.78;5073568;28;51149;-46
2022/02/06 01:16:10;;;;;;;;;2.00;2.00;;;;;21.73;33.14;101811.50;5064455;28;51069;-47
2022/02/06 01:18:45;;;;;;;;;2.25;2.25;;;;;21.70;33.37;101807.28;5073314;28;51176;-51
2022/02/06 01:24:01;;;;;;;;;2.00;2.00;;;;;21.65;33.25;101797.91;5064971;28;51069;-48
2022/02/06 01:29:06;;;;;;;;;4.00;2.00;;;;;21.57;33.72;101790.66;5074582;28;51800;-46
2022/02/06 01:34:20;;;;;;;;;3.75;1.00;;;;;21.54;33.52;101783.66;5061607;28;51095;-51
2022/02/06 01:37:02;;;;;;;;;2.00;2.00;;;;;21.59;33.41;101785.81;5064011;28;51031;-46
2022/02/06 01:40:26;;;;;;;;;1.00;1.00;;;;;21.63;33.64;101781.56;5064331;28;51852;-49
2022/02/06 01:42:24;;;;;;;;;2.00;2.00;;;;;21.69;33.67;101785.44;5048457;28;50888;-49
2022/02/06 02:01:21;;;;;;;;;1.00;1.00;;;;;21.58;33.52;101740.00;5059543;28;51346;-45
2022/02/06 02:25:48;;;;;;;;;2.50;2.50;;;;;21.26;33.56;101703.88;5068201;27;51248;-48
2022/02/06 02:48:17;;;;;;;;;2.00;2.00;;;;;21.03;34.00;101692.28;5063753;28;50983;-48
2022/02/06 02:50:48;;;;;;;;;2.50;2.50;;;;;21.00;33.62;101695.47;5068892;28;50927;-44
2022/02/06 02:56:33;;;;;;;;;3.00;3.00;;;;;20.97;33.93;101691.22;5059383;27;51512;-45
2022/02/06 02:58:51;;;;;;;;;2.00;2.00;;;;;20.93;34.17;101676.13;5074754;27;51276;-45
2022/02/06 03:01:27;;;;;;;;;2.00;2.00;;;;;20.92;34.38;101670.84;5060983;28;51044;-46
2022/02/06 03:03:53;;;;;;;;;3.00;3.00;;;;;20.90;34.37;101664.69;5063487;28;51136;-46
2022/02/06 03:06:18;;;;;;;;;2.00;2.00;;;;;20.87;34.17;101643.94;5070356;28;51022;-44
2022/02/06 03:08:45;;;;;;;;;2.50;2.00;;;;;20.86;34.23;101645.00;5063952;27;51146;-44
2022/02/06 03:11:11;;;;;;;;;3.25;1.50;;;;;20.84;33.96;101636.09;5068419;28;50905;-45
2022/02/06 03:16:27;;;;;;;;;2.00;2.00;;;;;20.80;34.17;101623.75;5062689;28;51114;-44
2022/02/06 03:19:06;;;;;;;;;3.00;2.25;;;;;20.79;33.92;101621.22;5067690;28;50999;-44
2022/02/06 03:21:33;;;;;;;;;1.00;1.00;;;;;20.77;34.36;101613.16;5066773;28;50885;-46
2022/02/06 03:26:46;;;;;;;;;2.00;2.00;;;;;20.74;34.16;101602.56;5059106;28;51367;-46
2022/02/06 03:29:13;;;;;;;;;3.25;2.00;;;;;20.72;34.48;101611.03;5070426;28;51174;-46
2022/02/06 03:31:39;;;;;;;;;1.75;1.75;;;;;20.71;34.45;101608.47;5071033;28;51023;-47
2022/02/06 03:34:05;;;;;;;;;1.75;1.75;;;;;20.69;34.45;101611.44;5074769;28;51141;-45
2022/02/06 03:36:30;;;;;;;;;3.00;3.00;;;;;20.68;34.34;101604.25;5083020;27;51348;-45
2022/02/06 03:38:56;;;;;;;;;2.00;2.00;;;;;20.66;34.32;101614.59;5066772;28;51043;-45
2022/02/06 03:41:23;;;;;;;;;4.00;2.50;;;;;20.65;34.02;101621.16;5068609;28;50896;-45
2022/02/06 03:44:00;;;;;;;;;2.00;2.00;;;;;20.65;34.42;101606.56;5061725;28;52188;-47
2022/02/06 03:46:37;;;;;;;;;3.00;2.25;;;;;20.62;34.68;101602.28;5065973;27;51249;-45
2022/02/06 03:51:32;;;;;;;;;3.00;1.00;;;;;20.60;34.66;101604.41;5071963;28;51252;-46
2022/02/06 03:53:57;;;;;;;;;3.00;2.00;;;;;20.59;34.33;101613.72;5069529;27;51655;-47
2022/02/06 03:56:25;;;;;;;;;1.50;1.50;;;;;20.59;34.15;101585.34;5081418;27;50935;-44
2022/02/06 03:58:51;;;;;;;;;1.00;1.00;;;;;20.58;34.47;101591.91;5067937;28;51006;-44
2022/02/06 04:01:16;;;;;;;;;2.75;2.75;;;;;20.56;34.71;101583.00;5061666;28;51221;-44
2022/02/06 04:03:42;;;;;;;;;2.75;2.75;;;;;20.55;34.48;101573.91;5072515;28;51024;-44
2022/02/06 04:06:08;;;;;;;;;2.25;1.00;;;;;20.54;34.80;101580.47;5063924;27;51178;-44
2022/02/06 04:08:34;;;;;;;;;3.00;1.00;;;;;20.53;34.43;101583.41;5066896;28;51118;-44
2022/02/06 04:11:01;;;;;;;;;1.75;1.50;;;;;20.51;34.56;101578.09;5064786;28;51109;-45
2022/02/06 04:13:27;;;;;;;;;2.00;2.00;;;;;20.52;34.57;101584.47;5066639;28;51244;-45
2022/02/06 04:15:58;;;;;;;;;2.25;2.25;;;;;20.49;34.56;101571.97;5065323;27;51183;-44
2022/02/06 04:18:40;;;;;;;;;1.25;1.00;;;;;20.49;34.57;101573.88;5068037;28;51171;-46
2022/02/06 04:21:06;;;;;;;;;1.00;1.00;;;;;20.47;34.59;101574.06;5067109;27;50908;-44
2022/02/06 04:23:31;;;;;;;;;1.00;1.00;;;;;20.46;34.59;101569.63;5059106;28;51936;-44
2022/02/06 04:25:57;;;;;;;;;2.50;1.25;;;;;20.44;34.53;101553.31;5069160;28;51047;-45
2022/02/06 04:28:22;;;;;;;;;4.00;2.25;;;;;20.45;34.74;101548.66;5072390;27;51113;-44
2022/02/06 04:30:48;;;;;;;;;1.00;1.00;;;;;20.43;34.72;101537.03;5064142;28;51316;-46
2022/02/06 04:33:13;;;;;;;;;3.00;1.00;;;;;20.42;34.64;101536.16;5071907;28;51934;-46
2022/02/06 04:35:40;;;;;;;;;2.00;2.00;;;;;20.41;34.88;101528.91;5066137;27;50949;-49
2022/02/06 05:18:13;;;;;;;;;1.50;1.50;;;;;20.26;34.87;101469.59;5072298;28;51193;-46
2022/02/06 05:26:11;;;;;;;;;1.00;1.00;;;;;20.23;35.14;101448.03;5058209;28;50881;-45
2022/02/06 05:29:21;;;;;;;;;1.00;1.00;;;;;20.23;34.89;101453.53;5057183;28;50960;-47
2022/02/06 05:34:03;;;;;;;;;2.00;1.00;;;;;20.22;34.86;101438.03;5065877;28;51021;-46
2022/02/06 05:36:28;;;;;;;;;1.25;1.00;;;;;20.20;35.27;101424.50;5058304;28;51358;-45
2022/02/06 05:38:54;;;;;;;;;2.50;1.25;;;;;20.20;35.14;101416.25;5057551;28;51161;-45
2022/02/06 05:41:19;;;;;;;;;0.50;0.50;;;;;20.19;35.27;101428.31;5065573;28;51105;-45
2022/02/06 05:43:44;;;;;;;;;1.00;1.00;;;;;20.17;34.94;101434.03;5072918;28;51277;-46
2022/02/06 05:46:10;;;;;;;;;1.00;1.00;;;;;20.17;35.00;101439.53;5058543;28;51048;-45
2022/02/06 05:48:35;;;;;;;;;0.75;0.75;;;;;20.17;35.26;101427.66;5068463;28;51042;-45
2022/02/06 05:51:01;;;;;;;;;0.00;0.00;;;;;20.17;35.22;101433.16;5069261;28;51138;-48
2022/02/06 05:53:26;;;;;;;;;1.00;1.00;;;;;20.15;35.27;101422.38;5072455;28;50842;-45
2022/02/06 05:55:52;;;;;;;;;1.75;1.75;;;;;20.14;35.02;101415.19;5058362;28;51512;-46
2022/02/06 05:58:17;;;;;;;;;1.25;0.75;;;;;20.14;35.35;101406.94;5073471;28;50904;-45
2022/02/06 06:00:43;;;;;;;;;1.00;1.00;;;;;20.13;35.12;101429.16;5067646;28;51345;-48
2022/02/06 06:03:08;;;;;;;;;3.00;1.00;;;;;20.12;35.11;101416.44;5069406;28;51011;-46
2022/02/06 06:05:35;;;;;;;;;1.00;1.00;;;;;20.11;34.95;101426.59;5056524;28;51002;-45
2022/02/06 06:08:00;;;;;;;;;1.00;1.00;;;;;20.11;35.26;101406.47;5065053;28;51153;-45
2022/02/06 06:10:26;;;;;;;;;1.50;0.25;;;;;20.11;35.24;101395.47;5065905;28;51071;-45
2022/02/06 06:12:52;;;;;;;;;1.00;1.00;;;;;20.11;34.97;101411.97;5069883;28;51028;-45
2022/02/06 06:15:17;;;;;;;;;1.00;1.00;;;;;20.10;35.14;101399.28;5057808;28;51870;-44
2022/02/06 06:17:42;;;;;;;;;0.00;0.00;;;;;20.09;35.22;101395.69;5069429;28;51106;-47
2022/02/06 06:20:14;;;;;;;;;3.50;1.00;;;;;20.08;34.97;101390.41;5067724;28;50819;-46
2022/02/06 06:22:40;;;;;;;;;3.00;1.00;;;;;20.08;35.05;101394.00;5065286;28;51244;-46
2022/02/06 06:25:07;;;;;;;;;0.00;0.00;;;;;20.07;34.98;101389.56;5059628;28;51737;-45
2022/02/06 06:27:33;;;;;;;;;1.00;1.00;;;;;20.07;35.47;101392.31;5081510;27;50984;-45
2022/02/06 06:29:58;;;;;;;;;0.50;0.50;;;;;20.06;35.46;101374.09;5059244;28;51132;-45
2022/02/06 06:32:24;;;;;;;;;1.00;1.00;;;;;20.06;35.29;101368.59;5064584;28;51586;-45
2022/02/06 06:34:51;;;;;;;;;2.00;0.25;;;;;20.04;35.25;101370.72;5066668;28;51936;-45
2022/02/06 06:37:18;;;;;;;;;0.50;0.50;;;;;20.04;35.29;101386.38;5063332;28;50954;-46
2022/02/06 06:39:45;;;;;;;;;1.50;1.00;;;;;20.04;35.09;101375.38;5065737;28;51071;-45
2022/02/06 06:42:12;;;;;;;;;2.75;1.00;;;;;20.02;35.45;101394.84;5070841;28;50916;-46
2022/02/06 06:44:38;;;;;;;;;1.50;1.50;;;;;20.03;35.39;101385.53;5058385;28;51823;-47
2022/02/06 06:47:05;;;;;;;;;1.00;1.00;;;;;20.03;35.44;101398.44;5064284;28;51053;-45
2022/02/06 06:49:31;;;;;;;;;1.00;1.00;;;;;20.03;35.15;101384.69;5066294;28;51022;-45
2022/02/06 06:51:57;;;;;;;;;1.00;1.00;;;;;20.03;36.23;101381.94;5057880;28;51064;-45
2022/02/06 06:54:23;;;;;;;;;1.00;1.00;;;;;20.02;35.99;101372.84;5070122;27;52866;-45
2022/02/06 06:56:57;;;;;;;;;3.50;1.00;;;;;20.05;35.88;101377.06;5058578;28;51090;-45
2022/02/06 07:04:40;;;;;;;;;1.00;1.00;;;;;20.07;36.29;101369.44;5069885;28;51372;-44
2022/02/06 07:07:06;;;;;;;;;3.00;1.25;;;;;20.09;36.44;101365.44;5068770;28;51250;-46
2022/02/06 07:09:31;;;;;;;;;3.00;2.25;;;;;20.09;36.25;101357.19;5074585;28;51074;-46
2022/02/06 07:11:56;;;;;;;;;0.50;0.50;;;;;20.11;36.29;101356.97;5074915;28;50965;-43
2022/02/06 07:14:22;;;;;;;;;0.50;0.50;;;;;20.13;36.29;101347.47;5061909;28;51674;-45
2022/02/06 07:16:47;;;;;;;;;1.75;0.75;;;;;20.21;36.28;101357.41;5065903;28;51149;-46
2022/02/06 07:19:13;;;;;;;;;1.00;0.25;;;;;20.30;36.33;101347.91;5069301;28;51104;-44
2022/02/06 07:21:39;;;;;;;;;2.75;2.00;;;;;20.39;35.94;101337.56;5067640;28;51301;-44
2022/02/06 07:24:05;;;;;;;;;3.25;1.25;;;;;20.50;36.01;101339.72;5062272;28;51678;-44
2022/02/06 07:26:31;;;;;;;;;2.00;1.00;;;;;20.60;35.62;101339.31;5074818;28;51096;-46
2022/02/06 07:28:59;;;;;;;;;1.25;1.25;;;;;20.69;35.68;101346.31;5065913;28;51573;-46
2022/02/06 07:31:25;;;;;;;;;3.00;1.75;;;;;20.80;35.55;101347.56;5060777;28;51453;-46
2022/02/06 07:33:50;;;;;;;;;1.50;0.25;;;;;20.88;35.65;101348.22;5057264;28;51764;-44
2022/02/06 07:36:19;;;;;;;;;0.00;0.00;;;;;20.96;35.20;101344.41;5056596;28;51058;-45
2022/02/06 07:38:44;;;;;;;;;0.75;0.50;;;;;21.03;35.69;101342.47;5056389;28;51320;-45
2022/02/06 07:41:10;;;;;;;;;1.00;1.00;;;;;21.08;35.05;101331.66;5065745;28;51368;-46
2022/02/06 07:43:37;;;;;;;;;1.00;1.00;;;;;21.15;35.57;101324.22;5060806;27;52300;-45
2022/02/06 07:46:07;;;;;;;;;1.50;1.25;;;;;21.22;35.45;101315.94;5050826;28;51062;-45
2022/02/06 07:48:33;;;;;;;;;1.00;1.00;;;;;21.28;35.54;101309.59;5061144;28;51359;-50
2022/02/06 07:50:58;;;;;;;;;1.00;1.00;;;;;21.33;35.05;101302.38;5056635;28;51022;-45
2022/02/06 07:53:24;;;;;;;;;0.25;0.25;;;;;21.35;35.00;101296.63;5064564;28;52599;-45
2022/02/06 07:55:49;;;;;;;;;3.00;1.00;;;;;21.35;34.96;101301.31;5057514;27;51447;-45
2022/02/06 07:58:14;;;;;;;;;1.00;1.00;;;;;21.35;35.35;101298.53;5054625;28;51169;-43
2022/02/06 08:00:40;;;;;;;;;1.75;1.00;;;;;21.35;35.22;101293.03;5065388;28;50951;-44
2022/02/06 08:03:06;;;;;;;;;0.50;0.50;;;;;21.33;35.49;101285.00;5061082;28;52248;-44
2022/02/06 08:05:31;;;;;;;;;2.25;2.00;;;;;21.33;34.94;101266.53;5061021;28;51117;-46
2022/02/06 08:07:58;;;;;;;;;1.25;1.25;;;;;21.30;34.93;101269.75;5066683;28;51290;-45
2022/02/06 08:10:25;;;;;;;;;2.50;1.25;;;;;21.32;35.68;101266.78;5061119;28;50949;-44
2022/02/06 08:13:07;;;;;;;;;1.00;1.00;;;;;21.32;35.26;101261.25;5059106;28;51834;-45
2022/02/06 08:15:32;;;;;;;;;2.00;2.00;;;;;21.36;35.52;101251.47;5062353;28;51042;-46
2022/02/06 08:17:58;;;;;;;;;1.50;1.50;;;;;21.43;35.38;101251.47;5058694;28;51051;-45
2022/02/06 08:20:23;;;;;;;;;5.00;2.00;;;;;21.50;35.56;101246.78;5065654;28;51073;-45
2022/02/06 08:22:51;;;;;;;;;4.50;2.00;;;;;21.59;35.52;101251.81;5058718;28;50857;-46
2022/02/06 08:25:17;;;;;;;;;1.75;1.00;;;;;21.67;35.50;101236.91;5086390;27;51380;-45
2022/02/06 08:27:43;;;;;;;;;1.50;1.50;;;;;21.69;35.08;101234.81;5069278;28;51158;-45
2022/02/06 08:30:10;;;;;;;;;4.25;1.00;;;;;21.71;35.02;101234.56;5063149;28;51415;-44
2022/02/06 08:32:35;;;;;;;;;3.75;3.00;;;;;21.71;35.28;101227.16;5060356;28;51232;-44
2022/02/06 08:35:02;;;;;;;;;2.00;1.00;;;;;21.71;35.40;101240.94;5058151;28;51109;-46
2022/02/06 08:37:28;;;;;;;;;2.00;1.00;;;;;21.70;35.12;101219.94;5064826;28;51124;-45
2022/02/06 08:39:53;;;;;;;;;1.75;1.00;;;;;21.70;35.04;101219.09;5059472;28;51209;-45
2022/02/06 08:42:19;;;;;;;;;1.00;1.00;;;;;21.69;34.97;101212.75;5063694;28;51583;-46
2022/02/06 08:44:46;;;;;;;;;1.00;1.00;;;;;21.69;35.43;101212.75;5056365;28;51087;-45
2022/02/06 08:47:15;;;;;;;;;1.00;1.00;;;;;21.69;35.14;101212.75;5061927;28;51397;-47
2022/02/06 08:49:41;;;;;;;;;1.75;1.75;;;;;21.73;35.39;101205.72;5056384;28;51404;-44
2022/02/06 08:52:08;;;;;;;;;2.00;1.75;;;;;21.80;35.46;101217.53;5064829;28;50973;-45
2022/02/06 08:54:35;;;;;;;;;1.00;1.00;;;;;21.87;34.97;101200.94;5058618;28;50846;-45
2022/02/06 08:57:05;;;;;;;;;1.00;1.00;;;;;21.92;35.62;101205.81;5064251;27;52169;-46
2022/02/06 08:59:32;;;;;;;;;4.00;1.00;;;;;21.93;35.10;101193.69;5058150;28;50931;-46
2022/02/06 09:02:01;;;;;;;;;2.25;2.25;;;;;21.92;35.60;101190.09;5054861;28;52180;-45
2022/02/06 09:04:27;;;;;;;;;3.75;2.00;;;;;21.92;35.58;101184.56;5059799;28;51452;-47
2022/02/06 09:06:57;;;;;;;;;1.00;1.00;;;;;21.90;35.25;101181.22;5065360;28;51106;-46
2022/02/06 09:09:23;;;;;;;;;2.00;1.25;;;;;21.89;35.18;101185.88;5064454;28;51183;-46
2022/02/06 09:11:51;;;;;;;;;3.50;1.00;;;;;21.88;35.63;101183.31;5065130;28;52212;-48
2022/02/06 09:14:18;;;;;;;;;1.00;1.00;;;;;21.86;35.19;101178.03;5063011;28;51130;-46
2022/02/06 09:16:43;;;;;;;;;1.25;1.25;;;;;21.87;35.36;101173.34;5053386;28;51114;-48
2022/02/06 09:19:12;;;;;;;;;1.00;1.00;;;;;21.90;35.41;101165.50;5056137;28;51181;-45
2022/02/06 09:21:37;;;;;;;;;2.75;1.00;;;;;21.96;35.26;101173.94;5058621;28;52555;-46
2022/02/06 09:24:03;;;;;;;;;2.75;1.00;;;;;22.02;35.39;101168.38;5058372;28;50906;-46
2022/02/06 09:26:28;;;;;;;;;0.00;0.00;;;;;22.08;35.69;101161.13;5061483;28;51000;-48
2022/02/06 09:28:53;;;;;;;;;0.25;0.25;;;;;22.12;35.22;101156.88;5065888;28;50897;-47
2022/02/06 09:31:24;;;;;;;;;0.75;0.75;;;;;22.12;34.98;101154.09;5062871;28;51137;-49
2022/02/06 09:36:15;;;;;;;;;3.25;1.00;;;;;22.09;35.20;101154.53;5053262;28;51066;-47
2022/02/06 09:38:40;;;;;;;;;2.25;2.00;;;;;22.06;36.14;101147.56;5063503;28;51274;-43
2022/02/06 09:41:05;;;;;;;;;3.00;2.00;;;;;22.05;35.66;101148.59;5065174;28;51078;-46
2022/02/06 09:43:32;;;;;;;;;1.00;1.00;;;;;22.04;35.98;101141.41;5064832;28;51045;-45
2022/02/06 09:46:00;;;;;;;;;0.00;0.00;;;;;22.03;35.73;101138.88;5053755;28;51114;-45
2022/02/06 09:48:29;;;;;;;;;1.50;0.00;;;;;22.03;36.01;101141.63;5053117;28;51107;-47
2022/02/06 09:50:55;;;;;;;;;1.00;1.00;;;;;22.01;36.02;101130.81;5062758;28;51738;-45
2022/02/06 09:53:20;;;;;;;;;3.50;1.50;;;;;22.02;35.62;101145.47;5063043;28;51369;-45
2022/02/06 09:55:46;;;;;;;;;4.50;4.50;;;;;22.04;35.71;101132.28;5058147;28;51165;-45
2022/02/06 10:00:50;;;;;;;;;1.00;1.00;;;;;22.10;35.74;101134.19;5055245;28;50980;-44
2022/02/06 10:03:19;;;;;;;;;2.25;2.00;;;;;22.14;35.61;101129.88;5062158;28;51182;-45
2022/02/06 10:05:45;;;;;;;;;3.25;1.25;;;;;22.14;35.13;101127.13;5056936;28;51131;-45
2022/02/06 10:08:24;;;;;;;;;6.00;2.00;;;;;22.12;35.26;101124.59;5059638;28;51282;-47
2022/02/06 10:11:01;;;;;;;;;2.50;1.50;;;;;22.10;35.31;101120.38;5070921;28;52793;-45
2022/02/06 10:13:27;;;;;;;;;2.00;2.00;;;;;22.07;35.22;101123.56;5059007;28;51455;-46
2022/02/06 10:15:55;;;;;;;;;5.00;3.25;;;;;22.05;35.24;101131.22;5067558;28;51198;-45
2022/02/06 10:18:20;;;;;;;;;5.00;3.00;;;;;22.05;35.37;101125.69;5059457;28;51411;-48
2022/02/06 10:20:47;;;;;;;;;6.00;4.00;;;;;22.02;35.42;101118.72;5066380;28;51995;-49
2022/02/06 10:23:27;;;;;;;;;7.25;4.00;;;;;22.02;35.81;101126.16;5067198;28;51216;-47
2022/02/06 10:25:54;;;;;;;;;4.00;2.25;;;;;22.02;35.84;101131.66;5064762;28;50980;-45
2022/02/06 10:28:35;;;;;;;;;1.75;1.75;;;;;22.02;35.92;101134.44;5065772;27;51034;-48
2022/02/06 10:31:06;;;;;;;;;3.25;1.00;;;;;22.05;36.00;101129.28;5062304;28;52452;-44
2022/02/06 10:34:01;;;;;;;;;3.00;2.00;;;;;22.12;35.63;101116.31;5058985;28;51280;-48
2022/02/06 10:36:35;;;;;;;;;3.75;2.00;;;;;22.18;36.00;101117.31;5051501;28;51671;-46
2022/02/06 10:39:04;;;;;;;;;3.25;2.00;;;;;22.21;35.38;101107.75;5061057;28;51286;-48
2022/02/06 10:41:30;;;;;;;;;2.00;2.00;;;;;22.21;35.88;101125.16;5065565;28;52321;-47
2022/02/06 10:44:02;;;;;;;;;3.00;2.00;;;;;22.21;36.09;101132.59;5067411;28;51015;-44
2022/02/06 10:46:30;;;;;;;;;3.00;2.00;;;;;22.20;35.97;101131.75;5059908;28;51120;-48
2022/02/06 10:49:09;;;;;;;;;1.00;1.00;;;;;22.18;36.10;101118.16;5062632;28;50971;-46
2022/02/06 10:51:43;;;;;;;;;2.75;2.00;;;;;22.17;35.46;101104.59;5051079;28;51031;-46
2022/02/06 10:54:33;;;;;;;;;2.50;1.00;;;;;22.14;35.48;101116.09;5067281;28;51086;-48
2022/02/06 10:57:06;;;;;;;;;2.50;2.00;;;;;22.12;35.80;101085.13;5051670;28;50913;-46
2022/02/06 10:59:47;;;;;;;;;1.25;1.25;;;;;22.08;35.80;101094.91;5059916;28;51381;-46
2022/02/06 11:02:26;;;;;;;;;2.00;2.00;;;;;22.08;36.03;101089.41;5060210;28;52490;-47
2022/02/06 11:05:02;;;;;;;;;2.75;2.00;;;;;22.12;36.24;101071.34;5062762;28;51095;-46
2022/02/06 11:07:27;;;;;;;;;3.00;3.00;;;;;22.17;36.24;101077.84;5065891;28;51106;-46
2022/02/06 11:10:08;;;;;;;;;2.50;2.50;;;;;22.23;36.71;101078.03;5057174;28;51003;-47
2022/02/06 11:12:34;;;;;;;;;3.00;2.00;;;;;22.26;36.75;101053.56;5061615;28;51766;-48
2022/02/06 11:15:02;;;;;;;;;3.50;3.00;;;;;22.26;36.85;101063.75;5061637;28;50957;-47
2022/02/06 11:17:30;;;;;;;;;3.00;3.00;;;;;22.25;36.94;101062.91;5057796;28;51397;-48
2022/02/06 11:20:10;;;;;;;;;2.75;2.75;;;;;22.24;36.36;101069.50;5056561;28;51306;-48
2022/02/06 11:22:37;;;;;;;;;4.00;2.00;;;;;22.23;36.97;101042.16;5066421;28;51145;-47
2022/02/06 11:25:05;;;;;;;;;2.00;2.00;;;;;22.24;36.93;101032.78;5069021;27;51485;-46
2022/02/06 11:27:32;;;;;;;;;3.50;3.50;;;;;22.24;37.05;100997.75;5064425;28;50955;-48
2022/02/06 11:29:57;;;;;;;;;4.00;4.00;;;;;22.25;37.36;101006.88;5066326;28;52006;-50
2022/02/06 11:32:26;;;;;;;;;3.25;3.00;;;;;22.25;37.32;101035.31;5062182;28;51137;-48
2022/02/06 11:34:51;;;;;;;;;6.00;5.00;;;;;22.26;37.48;101025.97;5058058;28;51436;-45
2022/02/06 11:46:36;;;;;;;;;6.75;6.00;;;;;22.48;38.40;100998.72;5063562;28;50998;-47
2022/02/06 11:49:14;;;;;;;;;9.00;9.00;;;;;22.54;39.45;101006.09;5063525;27;51662;-48
2022/02/06 11:51:53;;;;;;;;;10.25;10.00;;;;;22.58;39.42;100989.91;5065501;28;51226;-50
2022/02/06 11:54:34;;;;;;;;;12.50;9.50;;;;;22.59;40.07;100972.25;5057045;28;51280;-49
2022/02/06 11:57:20;;;;;;;;;11.25;10.00;;;;;22.60;39.67;100993.25;5060763;28;51066;-48
2022/02/06 12:00:05;;;;;;;;;13.50;10.25;;;;;22.59;40.00;100981.38;5088577;27;51183;-47
2022/02/06 12:02:36;;;;;;;;;11.25;10.00;;;;;22.60;40.14;101001.53;5086557;27;51392;-45
2022/02/06 12:05:28;;;;;;;;;12.50;10.00;;;;;22.58;40.46;100992.66;5060778;28;52039;-47
2022/02/06 12:08:10;;;;;;;;;12.25;12.25;;;;;22.58;40.64;100987.13;5058305;28;51023;-46
2022/02/06 12:10:35;;;;;;;;;12.50;10.50;;;;;22.57;39.83;100988.22;5055755;28;51001;-46
2022/02/06 12:13:25;;;;;;;;;10.75;9.25;;;;;22.57;40.35;100999.25;5087392;27;51058;-49
2022/02/06 12:16:01;;;;;;;;;12.25;9.25;;;;;22.56;40.38;100986.53;5056204;27;50934;-47
2022/02/06 12:18:27;;;;;;;;;12.00;10.50;;;;;22.57;39.81;100974.41;5056767;27;51597;-45
2022/02/06 12:20:56;;;;;;;;;10.00;9.25;;;;;22.61;40.25;100989.41;5050322;28;51182;-48
2022/02/06 12:23:42;;;;;;;;;12.25;12.25;;;;;22.67;40.07;100963.66;5065602;28;51399;-45
2022/02/06 12:26:47;;;;;;;;;8.25;8.00;;;;;22.71;39.99;100957.41;5055085;28;51386;-45
2022/02/06 12:29:22;;;;;;;;;12.00;10.00;;;;;22.71;39.25;100945.53;5055951;28;51642;-47
2022/02/06 12:31:53;;;;;;;;;16.00;11.50;;;;;22.71;39.31;100951.06;5053363;28;51189;-45
2022/02/06 12:37:39;;;;;;;;;11.25;8.00;;;;;22.68;39.35;100918.41;4993709;28;52912;-45
2022/02/06 12:40:04;;;;;;;;;12.00;11.25;;;;;22.66;39.16;100946.25;5045795;28;51475;-44
2022/02/06 12:42:33;;;;;;;;;11.50;10.00;;;;;22.65;38.65;100924.41;5057036;28;50801;-45
2022/02/06 12:45:01;;;;;;;;;12.75;11.50;;;;;22.63;38.62;100938.44;5061558;27;51364;-45
2022/02/06 12:47:28;;;;;;;;;11.50;9.00;;;;;22.61;38.63;100923.16;5056419;28;52229;-46
2022/02/06 12:49:54;;;;;;;;;14.00;11.00;;;;;22.59;39.08;100926.16;5057101;28;51462;-45
2022/02/06 12:52:20;;;;;;;;;12.00;9.25;;;;;22.59;38.82;100925.31;5055513;28;51000;-45
2022/02/06 12:54:45;;;;;;;;;11.50;10.00;;;;;22.60;39.17;100922.31;5052977;28;51022;-47
2022/02/06 12:57:11;;;;;;;;;9.00;9.00;;;;;22.65;39.23;100918.88;5056378;28;51301;-46
2022/02/06 12:59:38;;;;;;;;;5.00;5.00;;;;;22.69;38.81;100926.44;5056077;28;50913;-44
2022/02/06 13:02:06;;;;;;;;;8.00;7.75;;;;;22.71;38.51;100926.19;5054253;28;51131;-44
2022/02/06 13:04:40;;;;;;;;;9.25;9.25;;;;;22.71;38.35;100927.03;5055810;28;50878;-47
2022/02/06 13:07:05;;;;;;;;;8.00;7.75;;;;;22.69;38.63;100920.91;5055250;28;51829;-47
2022/02/06 13:09:40;;;;;;;;;9.75;7.00;;;;;22.68;38.46;100935.81;5056350;28;50998;-47
2022/02/06 13:20:53;;;;;;;;;6.75;6.00;;;;;22.62;38.35;100930.41;5054797;28;50963;-45
2022/02/06 13:23:38;;;;;;;;;8.00;7.25;;;;;22.60;38.68;100943.56;5056141;28;51264;-44
2022/02/06 13:26:21;;;;;;;;;11.00;9.00;;;;;22.59;38.37;100937.22;5058132;28;51223;-43
2022/02/06 13:29:01;;;;;;;;;7.50;7.50;;;;;22.62;38.64;100933.16;5047900;28;51736;-44
2022/02/06 13:36:34;;;;;;;;;6.00;6.00;;;;;22.74;38.88;100923.84;5056468;28;51373;-44
2022/02/06 13:39:08;;;;;;;;;7.50;6.50;;;;;22.75;38.36;100927.44;5055311;28;51850;-44
2022/02/06 13:41:34;;;;;;;;;7.00;6.50;;;;;22.74;38.75;100923.00;5054521;28;51433;-45
2022/02/06 13:44:11;;;;;;;;;8.00;6.00;;;;;22.72;38.74;100923.22;5055113;28;51246;-44
2022/02/06 13:46:38;;;;;;;;;7.25;6.50;;;;;22.71;38.77;100910.47;5054992;28;51247;-46
2022/02/06 13:49:04;;;;;;;;;5.25;5.00;;;;;22.70;38.82;100914.31;5052705;28;51806;-45
2022/02/06 13:51:41;;;;;;;;;6.00;6.00;;;;;22.69;38.32;100915.38;5052663;28;51343;-44
2022/02/06 13:54:07;;;;;;;;;11.00;6.50;;;;;22.67;38.61;100898.22;5044477;28;51328;-43
2022/02/06 13:56:34;;;;;;;;;6.25;4.50;;;;;22.66;38.37;100890.19;5054776;28;51246;-43
2022/02/06 13:59:08;;;;;;;;;6.00;6.00;;;;;22.65;38.69;100883.81;5051673;28;51846;-44
2022/02/06 14:01:36;;;;;;;;;0.00;0.00;;;;;22.67;39.08;100867.84;5054630;28;50993;-46
2022/02/06 14:04:01;;;;;;;;;5.75;5.25;;;;;22.70;38.85;100869.28;5053484;28;51265;-44
2022/02/06 14:06:41;;;;;;;;;5.50;3.50;;;;;22.76;38.86;100855.38;5053679;28;51540;-45
2022/02/06 14:09:20;;;;;;;;;5.25;4.75;;;;;22.79;38.99;100862.34;5057186;28;52830;-42
2022/02/06 14:12:16;;;;;;;;;3.50;3.00;;;;;22.80;38.57;100875.06;5056830;28;52230;-44
2022/02/06 14:14:54;;;;;;;;;4.25;4.25;;;;;22.79;38.38;100858.75;5043071;28;51264;-45
2022/02/06 14:17:28;;;;;;;;;6.00;4.25;;;;;22.76;38.67;100849.03;5056207;28;51066;-44
2022/02/06 14:19:55;;;;;;;;;4.00;4.00;;;;;22.74;38.50;100835.47;5056044;28;51163;-44
2022/02/06 14:22:23;;;;;;;;;4.50;3.00;;;;;22.72;38.50;100842.31;5057333;28;51390;-49